• Join FlightAware (Why Join?)
  • Login
  • US Flag 
04:29AM EST


 

Airport Tracker/Info


-or-


 

Live Flight TrackerFlight Track Log ✈ EJA829P ✈ 10-Nov-2013 ✈ KVRB - KBWI

Flight Track Log - Related Links

Times and Time Zones

All times are in EST time to prevent confusion due to time zone crossing. See the EJA829P flight status page for this flight to view local times or setup timezone preferences in your user account.

Time Position Orientation Groundspeed Altitude Reporting Facility
EST Latitude Longitude Course Direction KTS MPH feet Rate Location/Type
09:23AM 27.6847 -80.4119 296° West 400 460 1,500  Level Miami Center
09:24AM 27.7411 -80.4089 North 256 295 3,900 2,820 Climbing Miami Center
09:25AM 27.7603 -80.4847 286° West 202 232 7,200 3,180 Climbing Miami Center
09:26AM 27.7769 -80.5625 284° West 249 287 10,300 3,000 Climbing Miami Center
09:27AM 28.2900 -80.2357 North  Level Estimated
09:27AM 27.8169 -80.6367 301° West 272 313 13,200  Level Miami Center
09:28AM 28.3957 -80.2051 354° North  Level Estimated
09:28AM 27.8689 -80.7183 306° West 293 337 15,700  Level Miami Center
09:29AM 28.4432 -80.3168 296° West  Level FlightAware Approximate
09:29AM 27.9294 -80.7931 313° West 312 359 17,900  Level Miami Center
09:30AM 28.0008 -80.8567 322° Northwest 317 365 20,000 1,800 Climbing Miami Center
09:31AM 28.0742 -80.9206 322° Northwest 322 371 21,500 1,680 Climbing Miami Center
09:32AM 28.1475 -80.9844 322° Northwest 327 376 23,400 1,740 Climbing Miami Center
09:33AM 28.2253 -81.0344 330° Northwest 341 392 25,000 1,560 Climbing Miami Center
09:34AM 28.3203 -81.0733 340° North 347 399 26,600 1,500 Climbing Miami Center
09:35AM 28.4194 -81.1053 344° North 360 414 28,100 1,560 Climbing Miami Center
09:36AM 28.5189 -81.1281 349° North 360 414 29,800 1,680 Climbing Miami Center
09:37AM 28.6164 -81.1483 350° North 365 420 31,500 1,680 Climbing Miami Center
09:38AM 28.7094 -81.1708 348° North 354 407 33,200 1,560 Climbing Miami Center
09:39AM 28.8086 -81.1889 351° North 348 400 34,600 1,200 Climbing Jacksonville Center
09:40AM 28.9047 -81.2064 351° North 358 412 35,600 960 Climbing Jacksonville Center
09:41AM 29.0053 -81.2258 350° North 345 397 36,600 1,140 Climbing Jacksonville Center
09:42AM 29.1053 -81.2242 North 359 413 37,900 1,140 Climbing Jacksonville Center
09:43AM 29.2092 -81.1917 15° North 374 430 38,900 540 Climbing Jacksonville Center
09:44AM 29.3133 -81.1611 14° North 379 436 39,000  Climbing Jacksonville Center
09:45AM 29.4275 -81.1281 14° North 403 464 39,000  Level Jacksonville Center
09:46AM 29.5233 -81.0978 15° North 408 470 39,000  Level Jacksonville Center
09:47AM 29.6375 -81.0622 15° North 408 470 39,000  Level Jacksonville Center
09:48AM 29.7519 -81.0289 14° North 414 476 39,000  Level Jacksonville Center
09:49AM 29.8683 -80.9933 15° North 414 476 39,000  Level Jacksonville Center
09:50AM 29.9825 -80.9575 15° North 414 476 39,000  Level Jacksonville Center
09:51AM 30.0989 -80.9214 15° North 414 476 39,000  Level Jacksonville Center
09:52AM 30.2131 -80.8856 15° North 414 476 39,000  Level Jacksonville Center
09:53AM 30.3294 -80.8517 14° North 419 482 39,000  Level Jacksonville Center
09:54AM 30.4458 -80.8156 15° North 424 488 39,000  Level Jacksonville Center
09:55AM 30.5597 -80.7647 21° North 429 494 39,000  Level Jacksonville Center
09:56AM 30.6739 -80.7164 20° North 435 501 39,000  Level Jacksonville Center
09:57AM 30.7878 -80.6631 22° Northeast 435 501 39,000  Level Jacksonville Center
09:58AM 30.8997 -80.6119 21° North 435 501 39,000  Level Jacksonville Center
09:59AM 31.0156 -80.5606 21° North 430 495 39,000  Level Jacksonville Center
10:00AM 31.1294 -80.5069 22° Northeast 430 495 39,000  Level Jacksonville Center
10:01AM 31.2433 -80.4578 20° North 430 495 39,000  Level Jacksonville Center
10:02AM 31.3633 -80.4036 21° North 430 495 39,000  Level Jacksonville Center
10:03AM 31.4792 -80.3469 23° Northeast 430 495 39,000  Level Jacksonville Center
10:04AM 31.5908 -80.2950 22° Northeast 430 495 39,000  Level Jacksonville Center
10:05AM 31.7047 -80.2456 20° North 430 495 39,000  Level Jacksonville Center
10:06AM 31.8183 -80.1908 22° Northeast 430 495 39,000  Level Jacksonville Center
10:07AM 31.9300 -80.1411 21° North 430 495 39,000  Level Jacksonville Center
10:08AM 32.0417 -80.0889 22° Northeast 430 495 39,000  Level Jacksonville Center
10:09AM 32.1531 -80.0364 22° Northeast 430 495 39,000  Level Jacksonville Center
10:10AM 32.2667 -79.9836 21° North 430 495 39,000  Level Jacksonville Center
10:11AM 32.3700 -79.9336 22° Northeast 430 495 39,000  Level Jacksonville Center
10:12AM 32.4836 -79.8808 21° North 430 495 39,000  Level Jacksonville Center
10:13AM 32.5950 -79.8253 23° Northeast 430 495 39,000  Level Jacksonville Center
10:14AM 32.7106 -79.7719 21° North 430 495 39,000  Level Jacksonville Center
10:15AM 32.8219 -79.7161 23° Northeast 430 495 39,000  Level Jacksonville Center
10:16AM 32.9375 -79.6650 20° North 430 495 39,000  Level Jacksonville Center
10:17AM 33.0508 -79.6089 23° Northeast 430 495 39,000  Level Jacksonville Center
10:18AM 33.1642 -79.5553 22° Northeast 425 489 39,000  Level Jacksonville Center
10:19AM 33.2794 -79.5011 21° North 425 489 39,000  Level Jacksonville Center
10:20AM 33.3928 -79.4469 22° Northeast 425 489 39,000  Level Jacksonville Center
10:21AM 33.5042 -79.3931 22° Northeast 425 489 39,000  Level Jacksonville Center
10:22AM 33.6172 -79.3361 23° Northeast 430 495 39,000  Level Jacksonville Center
10:23AM 33.7389 -79.2836 20° North 425 489 39,000  Level Jacksonville Center
10:24AM 33.8500 -79.2292 22° Northeast 420 483 39,000  Level Jacksonville Center
10:25AM 33.9633 -79.1769 21° North 431 496 39,000  Level Jacksonville Center
10:26AM 34.0742 -79.1219 22° Northeast 431 496 39,000  Level Jacksonville Center
10:27AM 34.1872 -79.0644 23° Northeast 431 496 39,000  Level Jacksonville Center
10:28AM 34.3022 -79.0014 24° Northeast 431 496 39,000  Level Jacksonville Center
10:30AM 34.4497 -78.8911 32° Northeast 446 513 39,000  Level Washington Center
10:31AM 34.5564 -78.8047 34° Northeast 452 520 39,000  Level Washington Center
10:32AM 34.6672 -78.7206 32° Northeast 460 529 39,000  Level Washington Center
10:33AM 34.7864 -78.6292 32° Northeast 460 529 39,000  Level Washington Center
10:34AM 34.8819 -78.5567 32° Northeast 455 524 39,000  Level Washington Center
10:35AM 34.9883 -78.4719 33° Northeast 455 524 39,000 -600 Level Washington Center
10:36AM 35.1025 -78.4175 21° North 442 509 37,800 -1,020 Descending Washington Center
10:37AM 35.2161 -78.3683 19° North 432 497 37,000 -420 Descending Washington Center
10:38AM 35.3450 -78.3089 21° North 440 506 37,000  Level Washington Center
10:39AM 35.4650 -78.2544 20° North 445 512 37,000  Level Washington Center
10:40AM 35.5850 -78.2022 19° North 450 518 37,000  Level Washington Center
10:41AM 35.6989 -78.1547 19° North 450 518 37,000 -480 Level Washington Center
10:42AM 35.8125 -78.1022 21° North 445 512 36,100 -1,320 Descending Washington Center
10:43AM 35.9306 -78.0519 19° North 440 506 34,500 -1,620 Descending Washington Center
10:44AM 36.0442 -77.9989 21° North 440 506 33,000 -1,560 Descending Washington Center
10:45AM 36.1600 -77.9458 20° North 440 506 31,400 -1,620 Descending Washington Center
10:46AM 36.2736 -77.8953 20° North 434 499 29,900 -1,260 Descending Washington Center
10:47AM 36.3894 -77.8419 20° North 434 499 29,000 -480 Descending Washington Center
10:48AM 36.4906 -77.7931 21° North 434 499 29,000  Level Washington Center
10:49AM 36.6083 -77.7394 20° North 434 499 29,000 -240 Level Washington Center
10:50AM 36.7239 -77.6883 20° North 434 499 28,600 -540 Descending Washington Center
10:51AM 36.8375 -77.6342 21° North 434 499 28,000 -480 Descending Washington Center
10:52AM 36.9533 -77.5775 21° North 434 499 27,700 -540 Descending Washington Center
10:53AM 37.0647 -77.5311 18° North 428 493 27,000 -360 Descending Washington Center
10:54AM 37.1778 -77.5000 12° North 422 486 27,000  Level Washington Center
10:55AM 37.2908 -77.4661 13° North 417 480 27,000 960 Level Washington Center
10:56AM 37.4083 -77.4325 13° North 417 480 29,000 -1,440 Climbing Washington Center
10:57AM 37.5194 -77.3986 14° North 411 473 24,100 -3,180 Descending Washington Center
10:58AM 37.6303 -77.3644 14° North 411 473 22,700 -1,380 Descending Washington Center
10:59AM 37.7372 -77.3328 13° North 406 467 21,400 -1,200 Descending Washington Center
11:00AM 37.8442 -77.3011 13° North 401 461 20,400 -1,080 Descending Washington Center
11:01AM 37.9489 -77.2692 14° North 391 450 19,300 -1,200 Descending Washington Center
11:02AM 38.0619 -77.2375 12° North 386 444 18,100 -1,140 Descending Washington Center
11:03AM 38.1644 -77.2053 14° North 375 432 17,100 -900 Descending Washington Center
11:04AM 38.2419 -77.1806 14° North 370 426 16,300 -960 Descending Washington Center
11:05AM 38.3572 -77.1458 13° North 359 413 15,200 -1,380 Descending Washington Center
11:06AM 38.4394 -77.0733 35° Northeast 342 394 13,700 -1,560 Descending Washington Center
11:07AM 38.5156 -76.9794 44° Northeast 356 410 12,100 -1,380 Descending Washington Center
11:08AM 38.5875 -76.8878 45° Northeast 362 417 11,000 -1,140 Descending Washington Center
11:09AM 38.6550 -76.8067 43° Northeast 351 404 9,900 -1,080 Descending Washington Center
11:10AM 38.7142 -76.7278 46° Northeast 326 375 8,900 -1,200 Descending Washington Center
11:11AM 38.7544 -76.6353 61° Northeast 302 348 7,600 -1,320 Descending Washington Center
11:12AM 38.7992 -76.5425 58° Northeast 302 348 6,300 -1,380 Descending Washington Center
11:13AM 38.8833 -76.5333 North 253 291 4,500 -1,080 Descending Potomac TRACON
11:14AM 38.9500 -76.5500 349° North 243 280 3,900 -840 Descending Potomac TRACON
11:15AM 39.0167 -76.5667 349° North 209 241 3,000 -1,020 Descending Potomac TRACON
11:16AM 39.0667 -76.5667 360° North 195 224 2,000 -780 Descending Potomac TRACON
11:17AM 39.1000 -76.5833 339° North 144 166 1,500 -420 Descending Potomac TRACON
11:18AM 39.1333 -76.6167 322° Northwest 118 136 1,200 -480 Descending Potomac TRACON
11:19AM 39.1500 -76.6333 322° Northwest 107 123 600 -600 Descending Potomac TRACON
11:21AM 39.1667 -76.6667 339° North  Level FlightAware Approximate
11:28AM 39.1754 -76.6683 339° North  Level Estimated
11:29AM 39.1754 -76.6683 339° North  Level Estimated